sensor_id;sensor_type;location;lat;lon;timestamp;pressure;altitude;pressure_sealevel;temperature;humidity
63665;BME280;49820;33.966;73.390;2023-08-06T02:17:13;78442.19;;;18.44;100.00
63665;BME280;49820;33.966;73.390;2023-08-06T02:19:48;78432.50;;;18.97;100.00
63665;BME280;49820;33.966;73.390;2023-08-06T02:22:22;78423.06;;;19.45;100.00
63665;BME280;49820;33.966;73.390;2023-08-06T02:24:52;78408.47;;;19.87;100.00
63665;BME280;49820;33.966;73.390;2023-08-06T02:27:23;78425.38;;;20.44;100.00
63665;BME280;49820;33.966;73.390;2023-08-06T02:29:55;78405.03;;;20.67;100.00
63665;BME280;49820;33.966;73.390;2023-08-06T02:32:27;78425.28;;;21.12;100.00
63665;BME280;49820;33.966;73.390;2023-08-06T02:35:04;78411.25;;;20.86;100.00
63665;BME280;49820;33.966;73.390;2023-08-06T02:37:39;78423.31;;;20.89;100.00
63665;BME280;49820;33.966;73.390;2023-08-06T02:40:10;78424.66;;;21.22;100.00
63665;BME280;49820;33.966;73.390;2023-08-06T02:42:41;78438.75;;;22.21;100.00
63665;BME280;49820;33.966;73.390;2023-08-06T02:45:11;78444.66;;;22.85;100.00
63665;BME280;49820;33.966;73.390;2023-08-06T02:47:44;78450.53;;;22.68;100.00
63665;BME280;49820;33.966;73.390;2023-08-06T02:50:18;78446.63;;;22.76;100.00
63665;BME280;49820;33.966;73.390;2023-08-06T02:52:49;78413.81;;;22.78;100.00
63665;BME280;49820;33.966;73.390;2023-08-06T02:55:20;78433.25;;;22.82;100.00
63665;BME280;49820;33.966;73.390;2023-08-06T02:57:51;78452.22;;;22.74;100.00
63665;BME280;49820;33.966;73.390;2023-08-06T03:00:22;78467.41;;;22.60;100.00
63665;BME280;49820;33.966;73.390;2023-08-06T03:02:51;78456.09;;;22.66;100.00
63665;BME280;49820;33.966;73.390;2023-08-06T03:05:32;78455.88;;;23.00;100.00
63665;BME280;49820;33.966;73.390;2023-08-06T03:08:01;78423.31;;;22.98;100.00
63665;BME280;49820;33.966;73.390;2023-08-06T03:10:33;78472.13;;;23.21;100.00
63665;BME280;49820;33.966;73.390;2023-08-06T03:13:04;78421.97;;;23.27;100.00
63665;BME280;49820;33.966;73.390;2023-08-06T03:15:33;78434.88;;;23.86;100.00
63665;BME280;49820;33.966;73.390;2023-08-06T03:18:10;78459.88;;;24.00;100.00
63665;BME280;49820;33.966;73.390;2023-08-06T03:20:42;78368.63;;;22.62;100.00
63665;BME280;49820;33.966;73.390;2023-08-06T03:23:12;78442.75;;;23.33;100.00
63665;BME280;49820;33.966;73.390;2023-08-06T03:25:44;78437.31;;;23.52;100.00
63665;BME280;49820;33.966;73.390;2023-08-06T03:28:14;78441.69;;;23.96;100.00
63665;BME280;49820;33.966;73.390;2023-08-06T03:31:01;78455.91;;;24.82;100.00
63665;BME280;49820;33.966;73.390;2023-08-06T03:33:41;78453.41;;;24.42;100.00
63665;BME280;49820;33.966;73.390;2023-08-06T03:36:15;78471.06;;;24.15;100.00
63665;BME280;49820;33.966;73.390;2023-08-06T03:38:45;78462.38;;;23.54;100.00
63665;BME280;49820;33.966;73.390;2023-08-06T03:41:19;78466.25;;;23.28;100.00
63665;BME280;49820;33.966;73.390;2023-08-06T03:43:50;78488.28;;;23.04;100.00
63665;BME280;49820;33.966;73.390;2023-08-06T03:46:25;78473.31;;;22.84;100.00
63665;BME280;49820;33.966;73.390;2023-08-06T03:48:55;78482.47;;;22.49;100.00
63665;BME280;49820;33.966;73.390;2023-08-06T03:51:26;78486.78;;;22.45;100.00
63665;BME280;49820;33.966;73.390;2023-08-06T03:53:56;78485.75;;;22.30;100.00
63665;BME280;49820;33.966;73.390;2023-08-06T03:56:27;78488.38;;;22.21;100.00
63665;BME280;49820;33.966;73.390;2023-08-06T03:58:59;78455.31;;;22.06;100.00
63665;BME280;49820;33.966;73.390;2023-08-06T04:01:29;78442.13;;;22.11;100.00
63665;BME280;49820;33.966;73.390;2023-08-06T04:03:59;78461.63;;;22.34;100.00
63665;BME280;49820;33.966;73.390;2023-08-06T04:06:29;78441.66;;;22.38;100.00
63665;BME280;49820;33.966;73.390;2023-08-06T04:08:58;78454.78;;;22.25;100.00
63665;BME280;49820;33.966;73.390;2023-08-06T04:11:27;78457.25;;;22.29;100.00
63665;BME280;49820;33.966;73.390;2023-08-06T04:13:56;78462.19;;;22.16;100.00
63665;BME280;49820;33.966;73.390;2023-08-06T04:16:25;78461.28;;;21.98;100.00
63665;BME280;49820;33.966;73.390;2023-08-06T04:18:55;78459.75;;;21.80;100.00
63665;BME280;49820;33.966;73.390;2023-08-06T04:21:24;78469.06;;;21.51;100.00
63665;BME280;49820;33.966;73.390;2023-08-06T04:23:53;78455.56;;;21.17;100.00
63665;BME280;49820;33.966;73.390;2023-08-06T04:26:22;78477.13;;;21.08;100.00
63665;BME280;49820;33.966;73.390;2023-08-06T04:28:52;78437.16;;;20.51;100.00
63665;BME280;49820;33.966;73.390;2023-08-06T04:31:39;78481.72;;;20.78;100.00
63665;BME280;49820;33.966;73.390;2023-08-06T04:34:13;78446.72;;;20.27;100.00
63665;BME280;49820;33.966;73.390;2023-08-06T04:36:43;78434.00;;;20.13;100.00
63665;BME280;49820;33.966;73.390;2023-08-06T04:39:12;78480.63;;;20.62;100.00
63665;BME280;49820;33.966;73.390;2023-08-06T04:41:44;78471.34;;;20.70;100.00
63665;BME280;49820;33.966;73.390;2023-08-06T04:44:13;78478.88;;;20.80;100.00
63665;BME280;49820;33.966;73.390;2023-08-06T04:46:43;78471.31;;;21.04;100.00
63665;BME280;49820;33.966;73.390;2023-08-06T04:49:15;78458.81;;;21.19;100.00
63665;BME280;49820;33.966;73.390;2023-08-06T04:51:44;78442.81;;;20.92;100.00
63665;BME280;49820;33.966;73.390;2023-08-06T04:54:13;78437.22;;;21.39;100.00
63665;BME280;49820;33.966;73.390;2023-08-06T04:56:42;78394.13;;;21.32;100.00
63665;BME280;49820;33.966;73.390;2023-08-06T04:59:12;78447.94;;;21.83;100.00
63665;BME280;49820;33.966;73.390;2023-08-06T05:01:41;78449.88;;;22.06;100.00
63665;BME280;49820;33.966;73.390;2023-08-06T05:04:11;78457.59;;;22.44;100.00
63665;BME280;49820;33.966;73.390;2023-08-06T05:06:40;78450.63;;;22.26;100.00
63665;BME280;49820;33.966;73.390;2023-08-06T05:09:09;78459.44;;;23.37;100.00
63665;BME280;49820;33.966;73.390;2023-08-06T05:11:38;78456.44;;;22.92;100.00
63665;BME280;49820;33.966;73.390;2023-08-06T05:14:08;78440.19;;;23.88;100.00
63665;BME280;49820;33.966;73.390;2023-08-06T05:16:39;78461.53;;;24.80;100.00
63665;BME280;49820;33.966;73.390;2023-08-06T05:19:08;78456.72;;;24.53;100.00
63665;BME280;49820;33.966;73.390;2023-08-06T05:21:38;78462.19;;;25.17;100.00
63665;BME280;49820;33.966;73.390;2023-08-06T05:24:07;78469.13;;;25.61;100.00
63665;BME280;49820;33.966;73.390;2023-08-06T05:26:55;78463.16;;;25.59;100.00
63665;BME280;49820;33.966;73.390;2023-08-06T05:29:24;78445.28;;;24.78;100.00
63665;BME280;49820;33.966;73.390;2023-08-06T05:32:11;78453.19;;;24.54;100.00
63665;BME280;49820;33.966;73.390;2023-08-06T05:34:41;78437.25;;;24.48;100.00
63665;BME280;49820;33.966;73.390;2023-08-06T05:37:11;78427.34;;;23.87;100.00
63665;BME280;49820;33.966;73.390;2023-08-06T05:39:40;78455.91;;;24.82;100.00
63665;BME280;49820;33.966;73.390;2023-08-06T05:42:09;78440.13;;;24.46;100.00
63665;BME280;49820;33.966;73.390;2023-08-06T05:44:39;78463.31;;;24.84;100.00
63665;BME280;49820;33.966;73.390;2023-08-06T05:47:08;78450.53;;;25.36;100.00
63665;BME280;49820;33.966;73.390;2023-08-06T05:49:37;78439.53;;;25.72;100.00
63665;BME280;49820;33.966;73.390;2023-08-06T05:52:26;78439.94;;;26.29;86.84
63665;BME280;49820;33.966;73.390;2023-08-06T05:54:55;78446.19;;;26.62;84.70
63665;BME280;49820;33.966;73.390;2023-08-06T05:57:25;78449.22;;;25.97;92.01
63665;BME280;49820;33.966;73.390;2023-08-06T05:59:55;78452.63;;;26.84;96.63
63665;BME280;49820;33.966;73.390;2023-08-06T06:02:25;78435.34;;;25.20;99.84
63665;BME280;49820;33.966;73.390;2023-08-06T06:04:55;78443.53;;;25.11;100.00
63665;BME280;49820;33.966;73.390;2023-08-06T06:07:43;78447.59;;;25.21;100.00
63665;BME280;49820;33.966;73.390;2023-08-06T06:10:30;78430.88;;;25.33;100.00
63665;BME280;49820;33.966;73.390;2023-08-06T06:13:00;78431.44;;;25.53;100.00
63665;BME280;49820;33.966;73.390;2023-08-06T06:15:29;78436.22;;;25.35;100.00
63665;BME280;49820;33.966;73.390;2023-08-06T06:17:58;78375.75;;;25.57;98.28
63665;BME280;49820;33.966;73.390;2023-08-06T06:20:27;78435.13;;;25.04;99.93
63665;BME280;49820;33.966;73.390;2023-08-06T06:23:01;78432.47;;;25.30;100.00
63665;BME280;49820;33.966;73.390;2023-08-06T06:25:31;78413.13;;;26.98;100.00
63665;BME280;49820;33.966;73.390;2023-08-06T06:28:01;78423.47;;;29.07;90.12
63665;BME280;49820;33.966;73.390;2023-08-06T06:30:30;78422.78;;;28.68;100.00
63665;BME280;49820;33.966;73.390;2023-08-06T06:33:00;78422.47;;;27.51;88.16
63665;BME280;49820;33.966;73.390;2023-08-06T06:35:30;78429.75;;;25.93;100.00
63665;BME280;49820;33.966;73.390;2023-08-06T06:38:00;78424.34;;;25.56;100.00
63665;BME280;49820;33.966;73.390;2023-08-06T06:40:29;78424.88;;;25.22;100.00
63665;BME280;49820;33.966;73.390;2023-08-06T06:42:58;78417.47;;;25.12;100.00
63665;BME280;49820;33.966;73.390;2023-08-06T06:45:27;78401.81;;;24.65;100.00
63665;BME280;49820;33.966;73.390;2023-08-06T06:47:57;78418.72;;;24.40;100.00
63665;BME280;49820;33.966;73.390;2023-08-06T06:50:26;78367.16;;;24.17;100.00
63665;BME280;49820;33.966;73.390;2023-08-06T06:52:56;78390.94;;;25.81;100.00
63665;BME280;49820;33.966;73.390;2023-08-06T06:56:02;78406.72;;;26.07;100.00
63665;BME280;49820;33.966;73.390;2023-08-06T06:58:33;78415.75;;;26.48;100.00
63665;BME280;49820;33.966;73.390;2023-08-06T07:01:02;78385.63;;;26.05;100.00
63665;BME280;49820;33.966;73.390;2023-08-06T07:06:19;78396.59;;;26.48;100.00
63665;BME280;49820;33.966;73.390;2023-08-06T07:08:49;78368.31;;;27.34;90.93
63665;BME280;49820;33.966;73.390;2023-08-06T07:11:18;78377.41;;;25.79;100.00
63665;BME280;49820;33.966;73.390;2023-08-06T07:13:47;78377.16;;;24.85;100.00
63665;BME280;49820;33.966;73.390;2023-08-06T07:16:17;78379.03;;;25.94;100.00
63665;BME280;49820;33.966;73.390;2023-08-06T07:18:46;78343.88;;;24.82;100.00
63665;BME280;49820;33.966;73.390;2023-08-06T07:21:15;78384.56;;;24.50;100.00
63665;BME280;49820;33.966;73.390;2023-08-06T07:23:44;78373.69;;;24.03;100.00
63665;BME280;49820;33.966;73.390;2023-08-06T07:26:13;78382.91;;;24.16;100.00
63665;BME280;49820;33.966;73.390;2023-08-06T07:28:43;78356.19;;;24.00;100.00
63665;BME280;49820;33.966;73.390;2023-08-06T07:31:13;78353.28;;;23.74;100.00
63665;BME280;49820;33.966;73.390;2023-08-06T07:34:00;78377.31;;;23.90;100.00
63665;BME280;49820;33.966;73.390;2023-08-06T07:36:29;78363.59;;;23.82;100.00
63665;BME280;49820;33.966;73.390;2023-08-06T07:38:59;78373.94;;;23.90;100.00
63665;BME280;49820;33.966;73.390;2023-08-06T07:41:28;78360.69;;;23.17;100.00
63665;BME280;49820;33.966;73.390;2023-08-06T07:43:57;78353.06;;;23.29;100.00
63665;BME280;49820;33.966;73.390;2023-08-06T07:46:29;78351.13;;;24.86;100.00
63665;BME280;49820;33.966;73.390;2023-08-06T07:48:58;78317.59;;;25.04;100.00
63665;BME280;49820;33.966;73.390;2023-08-06T07:51:27;78349.91;;;24.65;100.00
63665;BME280;49820;33.966;73.390;2023-08-06T07:53:57;78299.63;;;23.89;100.00
63665;BME280;49820;33.966;73.390;2023-08-06T07:56:26;78351.84;;;24.67;100.00
63665;BME280;49820;33.966;73.390;2023-08-06T07:58:56;78337.63;;;24.39;100.00
63665;BME280;49820;33.966;73.390;2023-08-06T08:01:25;78338.91;;;24.40;100.00
63665;BME280;49820;33.966;73.390;2023-08-06T08:03:55;78321.66;;;24.32;100.00
63665;BME280;49820;33.966;73.390;2023-08-06T08:06:24;78336.41;;;25.08;100.00
63665;BME280;49820;33.966;73.390;2023-08-06T08:08:53;78323.50;;;26.79;98.65
63665;BME280;49820;33.966;73.390;2023-08-06T08:11:22;78336.97;;;27.07;100.00
63665;BME280;49820;33.966;73.390;2023-08-06T08:14:10;78329.44;;;26.99;100.00
63665;BME280;49820;33.966;73.390;2023-08-06T08:16:39;78327.78;;;26.35;100.00
63665;BME280;49820;33.966;73.390;2023-08-06T08:19:09;78328.44;;;27.03;100.00
63665;BME280;49820;33.966;73.390;2023-08-06T08:21:38;78286.34;;;26.56;100.00
63665;BME280;49820;33.966;73.390;2023-08-06T08:24:08;78329.22;;;26.51;100.00
63665;BME280;49820;33.966;73.390;2023-08-06T08:26:37;78316.22;;;25.48;100.00
63665;BME280;49820;33.966;73.390;2023-08-06T08:29:06;78318.78;;;24.71;100.00
63665;BME280;49820;33.966;73.390;2023-08-06T08:31:35;78309.91;;;24.62;100.00
63665;BME280;49820;33.966;73.390;2023-08-06T08:34:07;78331.03;;;24.16;100.00
63665;BME280;49820;33.966;73.390;2023-08-06T08:36:36;78320.88;;;23.78;100.00
63665;BME280;49820;33.966;73.390;2023-08-06T08:39:06;78320.53;;;23.74;100.00
63665;BME280;49820;33.966;73.390;2023-08-06T08:41:36;78317.91;;;23.91;100.00
63665;BME280;49820;33.966;73.390;2023-08-06T08:44:09;78313.38;;;24.43;100.00
63665;BME280;49820;33.966;73.390;2023-08-06T08:46:40;78298.38;;;24.33;100.00
63665;BME280;49820;33.966;73.390;2023-08-06T08:49:10;78305.56;;;25.19;100.00
63665;BME280;49820;33.966;73.390;2023-08-06T08:51:43;78297.59;;;24.80;100.00
63665;BME280;49820;33.966;73.390;2023-08-06T08:54:15;78300.56;;;24.59;100.00
63665;BME280;49820;33.966;73.390;2023-08-06T08:56:45;78266.88;;;24.26;100.00
63665;BME280;49820;33.966;73.390;2023-08-06T08:59:15;78277.13;;;24.62;100.00
63665;BME280;49820;33.966;73.390;2023-08-06T09:01:45;78286.59;;;25.25;100.00
63665;BME280;49820;33.966;73.390;2023-08-06T09:04:21;78292.91;;;25.84;100.00
63665;BME280;49820;33.966;73.390;2023-08-06T09:06:54;78287.19;;;26.20;100.00
63665;BME280;49820;33.966;73.390;2023-08-06T09:09:31;78297.00;;;26.93;100.00
63665;BME280;49820;33.966;73.390;2023-08-06T09:12:06;78277.75;;;26.69;94.99
63665;BME280;49820;33.966;73.390;2023-08-06T09:14:43;78223.06;;;25.33;97.83
63665;BME280;49820;33.966;73.390;2023-08-06T09:17:14;78260.84;;;25.48;100.00
63665;BME280;49820;33.966;73.390;2023-08-06T09:19:43;78269.94;;;24.84;100.00
63665;BME280;49820;33.966;73.390;2023-08-06T09:22:18;78274.88;;;24.56;100.00
63665;BME280;49820;33.966;73.390;2023-08-06T09:25:06;78301.19;;;24.14;100.00
63665;BME280;49820;33.966;73.390;2023-08-06T09:27:39;78279.59;;;24.29;100.00
63665;BME280;49820;33.966;73.390;2023-08-06T09:30:10;78295.19;;;24.03;100.00
63665;BME280;49820;33.966;73.390;2023-08-06T09:32:57;78282.78;;;23.68;100.00
63665;BME280;49820;33.966;73.390;2023-08-06T09:35:31;78283.09;;;23.64;100.00
63665;BME280;49820;33.966;73.390;2023-08-06T09:38:07;78281.69;;;24.29;100.00
63665;BME280;49820;33.966;73.390;2023-08-06T09:40:38;78278.06;;;25.38;100.00
63665;BME280;49820;33.966;73.390;2023-08-06T09:43:26;78284.34;;;25.28;100.00
63665;BME280;49820;33.966;73.390;2023-08-06T09:45:55;78283.81;;;24.46;100.00
63665;BME280;49820;33.966;73.390;2023-08-06T09:48:26;78263.88;;;24.39;100.00
63665;BME280;49820;33.966;73.390;2023-08-06T09:50:56;78261.56;;;23.87;100.00
63665;BME280;49820;33.966;73.390;2023-08-06T09:53:27;78235.78;;;23.39;100.00
63665;BME280;49820;33.966;73.390;2023-08-06T09:55:56;78264.19;;;23.23;100.00
63665;BME280;49820;33.966;73.390;2023-08-06T09:58:27;78289.19;;;23.17;100.00
63665;BME280;49820;33.966;73.390;2023-08-06T10:00:56;78288.75;;;22.85;100.00
63665;BME280;49820;33.966;73.390;2023-08-06T10:03:25;78274.75;;;22.61;100.00
63665;BME280;49820;33.966;73.390;2023-08-06T10:05:57;78266.41;;;22.43;100.00
63665;BME280;49820;33.966;73.390;2023-08-06T10:08:27;78246.03;;;22.23;100.00
63665;BME280;49820;33.966;73.390;2023-08-06T10:10:57;78238.59;;;22.13;100.00
63665;BME280;49820;33.966;73.390;2023-08-06T10:13:27;78257.38;;;22.06;100.00
63665;BME280;49820;33.966;73.390;2023-08-06T10:15:57;78262.44;;;21.72;100.00
63665;BME280;49820;33.966;73.390;2023-08-06T10:18:26;78253.03;;;21.50;100.00
63665;BME280;49820;33.966;73.390;2023-08-06T10:20:56;78245.72;;;21.38;100.00
63665;BME280;49820;33.966;73.390;2023-08-06T10:23:36;78256.88;;;21.23;100.00
63665;BME280;49820;33.966;73.390;2023-08-06T10:26:07;78232.47;;;20.80;100.00
63665;BME280;49820;33.966;73.390;2023-08-06T10:28:40;78283.38;;;21.01;100.00
63665;BME280;49820;33.966;73.390;2023-08-06T10:31:10;78274.34;;;20.83;100.00
63665;BME280;49820;33.966;73.390;2023-08-06T10:33:49;78250.94;;;20.46;100.00
63665;BME280;49820;33.966;73.390;2023-08-06T10:36:19;78249.66;;;20.34;100.00
63665;BME280;49820;33.966;73.390;2023-08-06T10:38:50;78235.66;;;20.19;100.00
63665;BME280;49820;33.966;73.390;2023-08-06T10:41:29;78202.53;;;19.74;100.00
63665;BME280;49820;33.966;73.390;2023-08-06T10:44:18;78227.72;;;19.83;100.00
63665;BME280;49820;33.966;73.390;2023-08-06T10:46:52;78229.00;;;19.73;100.00
63665;BME280;49820;33.966;73.390;2023-08-06T10:49:21;78215.47;;;19.39;100.00
63665;BME280;49820;33.966;73.390;2023-08-06T10:51:52;78185.06;;;19.16;100.00
63665;BME280;49820;33.966;73.390;2023-08-06T10:54:24;78203.13;;;20.30;100.00
63665;BME280;49820;33.966;73.390;2023-08-06T10:56:54;78189.91;;;20.87;100.00
63665;BME280;49820;33.966;73.390;2023-08-06T10:59:42;78201.78;;;21.54;100.00
63665;BME280;49820;33.966;73.390;2023-08-06T11:02:14;78173.03;;;21.87;100.00
63665;BME280;49820;33.966;73.390;2023-08-06T11:04:43;78168.06;;;22.20;100.00
63665;BME280;49820;33.966;73.390;2023-08-06T11:07:14;78200.75;;;22.77;100.00
63665;BME280;49820;33.966;73.390;2023-08-06T11:09:50;78179.94;;;23.57;100.00
63665;BME280;49820;33.966;73.390;2023-08-06T11:12:22;78181.97;;;23.93;100.00
63665;BME280;49820;33.966;73.390;2023-08-06T11:14:51;78173.88;;;23.10;100.00
63665;BME280;49820;33.966;73.390;2023-08-06T11:17:20;78202.13;;;22.96;100.00
63665;BME280;49820;33.966;73.390;2023-08-06T11:19:49;78183.94;;;22.64;100.00
63665;BME280;49820;33.966;73.390;2023-08-06T11:22:22;78208.50;;;23.11;100.00
63665;BME280;49820;33.966;73.390;2023-08-06T11:24:53;78211.81;;;23.50;100.00
63665;BME280;49820;33.966;73.390;2023-08-06T11:27:23;78224.34;;;23.92;100.00
63665;BME280;49820;33.966;73.390;2023-08-06T11:29:54;78212.53;;;24.05;100.00
63665;BME280;49820;33.966;73.390;2023-08-06T11:32:24;78208.59;;;24.21;100.00
63665;BME280;49820;33.966;73.390;2023-08-06T11:34:53;78193.84;;;23.90;100.00
63665;BME280;49820;33.966;73.390;2023-08-06T11:37:26;78200.16;;;24.06;100.00
63665;BME280;49820;33.966;73.390;2023-08-06T11:39:56;78201.13;;;24.47;100.00
63665;BME280;49820;33.966;73.390;2023-08-06T11:42:31;78204.84;;;24.78;100.00
63665;BME280;49820;33.966;73.390;2023-08-06T11:45:22;78191.91;;;24.33;99.55
63665;BME280;49820;33.966;73.390;2023-08-06T11:47:52;78207.91;;;24.83;100.00
63665;BME280;49820;33.966;73.390;2023-08-06T11:50:25;78177.56;;;24.16;95.12
63665;BME280;49820;33.966;73.390;2023-08-06T11:52:59;78196.16;;;24.76;93.03
63665;BME280;49820;33.966;73.390;2023-08-06T11:55:28;78178.81;;;24.88;85.53
63665;BME280;49820;33.966;73.390;2023-08-06T11:57:58;78188.13;;;24.73;84.54
63665;BME280;49820;33.966;73.390;2023-08-06T12:00:29;78176.25;;;24.77;88.61
63665;BME280;49820;33.966;73.390;2023-08-06T12:02:58;78198.41;;;24.73;82.28
63665;BME280;49820;33.966;73.390;2023-08-06T12:05:31;78187.31;;;24.04;84.20
63665;BME280;49820;33.966;73.390;2023-08-06T12:08:04;78187.88;;;23.79;94.86
63665;BME280;49820;33.966;73.390;2023-08-06T12:10:34;78189.34;;;23.50;100.00
63665;BME280;49820;33.966;73.390;2023-08-06T12:13:06;78197.88;;;23.27;100.00
63665;BME280;49820;33.966;73.390;2023-08-06T12:15:35;78190.19;;;22.82;100.00
63665;BME280;49820;33.966;73.390;2023-08-06T12:18:06;78177.31;;;22.33;95.16
63665;BME280;49820;33.966;73.390;2023-08-06T12:20:37;78189.91;;;22.28;95.60
63665;BME280;49820;33.966;73.390;2023-08-06T12:23:07;78211.31;;;22.24;98.04
63665;BME280;49820;33.966;73.390;2023-08-06T12:25:37;78194.34;;;22.04;98.99
63665;BME280;49820;33.966;73.390;2023-08-06T12:28:09;78194.09;;;21.67;100.00
63665;BME280;49820;33.966;73.390;2023-08-06T12:30:39;78180.16;;;21.22;100.00
63665;BME280;49820;33.966;73.390;2023-08-06T12:33:11;78168.91;;;21.18;100.00
63665;BME280;49820;33.966;73.390;2023-08-06T12:35:40;78195.16;;;21.11;100.00
63665;BME280;49820;33.966;73.390;2023-08-06T12:38:09;78178.81;;;20.70;100.00
63665;BME280;49820;33.966;73.390;2023-08-06T12:40:57;78207.53;;;20.67;100.00
63665;BME280;49820;33.966;73.390;2023-08-06T12:43:26;78198.22;;;20.53;100.00
63665;BME280;49820;33.966;73.390;2023-08-06T12:45:55;78196.69;;;20.56;100.00
63665;BME280;49820;33.966;73.390;2023-08-06T12:48:27;78126.94;;;19.91;100.00
63665;BME280;49820;33.966;73.390;2023-08-06T12:50:57;78175.84;;;20.21;100.00
63665;BME280;49820;33.966;73.390;2023-08-06T12:53:26;78183.09;;;20.14;100.00
63665;BME280;49820;33.966;73.390;2023-08-06T12:55:55;78202.72;;;20.04;100.00
63665;BME280;49820;33.966;73.390;2023-08-06T12:58:24;78200.28;;;20.10;100.00
63665;BME280;49820;33.966;73.390;2023-08-06T13:00:53;78126.00;;;19.63;100.00
63665;BME280;49820;33.966;73.390;2023-08-06T13:03:23;78211.41;;;20.38;100.00
63665;BME280;49820;33.966;73.390;2023-08-06T13:05:52;78135.03;;;19.80;100.00
63665;BME280;49820;33.966;73.390;2023-08-06T13:08:22;78183.88;;;20.12;100.00
63665;BME280;49820;33.966;73.390;2023-08-06T13:10:51;78201.31;;;20.26;100.00
63665;BME280;49820;33.966;73.390;2023-08-06T13:13:21;78205.44;;;20.25;100.00
63665;BME280;49820;33.966;73.390;2023-08-06T13:16:08;78213.59;;;20.36;100.00
63665;BME280;49820;33.966;73.390;2023-08-06T13:18:38;78204.94;;;20.33;100.00
63665;BME280;49820;33.966;73.390;2023-08-06T13:21:36;78210.88;;;20.36;100.00
63665;BME280;49820;33.966;73.390;2023-08-06T13:24:21;78201.06;;;20.09;100.00
63665;BME280;49820;33.966;73.390;2023-08-06T13:26:51;78215.09;;;20.11;100.00
63665;BME280;49820;33.966;73.390;2023-08-06T13:29:21;78208.78;;;19.94;100.00
63665;BME280;49820;33.966;73.390;2023-08-06T13:31:50;78220.41;;;20.03;100.00
63665;BME280;49820;33.966;73.390;2023-08-06T13:34:20;78213.56;;;19.93;100.00
63665;BME280;49820;33.966;73.390;2023-08-06T13:36:49;78220.13;;;19.86;100.00
63665;BME280;49820;33.966;73.390;2023-08-06T13:39:18;78210.66;;;19.63;100.00
63665;BME280;49820;33.966;73.390;2023-08-06T13:41:48;78173.38;;;19.19;100.00
63665;BME280;49820;33.966;73.390;2023-08-06T13:44:17;78205.88;;;19.30;100.00
63665;BME280;49820;33.966;73.390;2023-08-06T13:47:05;78219.91;;;19.22;100.00
63665;BME280;49820;33.966;73.390;2023-08-06T13:49:34;78211.47;;;19.04;100.00
63665;BME280;49820;33.966;73.390;2023-08-06T13:52:05;78232.53;;;19.15;100.00
63665;BME280;49820;33.966;73.390;2023-08-06T13:54:48;78229.41;;;19.10;100.00
63665;BME280;49820;33.966;73.390;2023-08-06T13:57:18;78222.66;;;18.98;100.00
63665;BME280;49820;33.966;73.390;2023-08-06T13:59:47;78219.72;;;18.79;100.00
63665;BME280;49820;33.966;73.390;2023-08-06T14:02:16;78232.78;;;18.87;100.00
63665;BME280;49820;33.966;73.390;2023-08-06T14:04:45;78225.34;;;18.64;100.00
63665;BME280;49820;33.966;73.390;2023-08-06T14:07:15;78243.47;;;18.66;100.00
63665;BME280;49820;33.966;73.390;2023-08-06T14:09:44;78253.16;;;18.63;100.00
63665;BME280;49820;33.966;73.390;2023-08-06T14:12:13;78238.03;;;18.43;100.00
63665;BME280;49820;33.966;73.390;2023-08-06T14:14:42;78212.69;;;18.25;100.00
63665;BME280;49820;33.966;73.390;2023-08-06T14:17:12;78231.94;;;18.32;100.00
63665;BME280;49820;33.966;73.390;2023-08-06T14:19:41;78234.34;;;18.12;100.00
63665;BME280;49820;33.966;73.390;2023-08-06T14:22:10;78197.06;;;17.66;100.00
63665;BME280;49820;33.966;73.390;2023-08-06T14:24:39;78238.72;;;17.95;100.00
63665;BME280;49820;33.966;73.390;2023-08-06T14:27:09;78237.41;;;17.93;100.00
63665;BME280;49820;33.966;73.390;2023-08-06T14:29:38;78218.50;;;17.93;100.00
63665;BME280;49820;33.966;73.390;2023-08-06T14:32:07;78243.47;;;18.07;100.00
